Time;durP1;ratioP1;P1;durP2;ratioP2;P2;SDS_P1;SDS_P2;PMS_P1;PMS_P2;Temp;Humidity;BMP_temperature;BMP_pressure;BME280_temperature;BME280_humidity;BME280_pressure;Samples;Min_cycle;Max_cycle;Signal;HPM_P1;HPM_P2
2021/10/27 00:00:07;;;;;;;11.05;2.58;;;;;;;;;;4974320;28;20114;-75
2021/10/27 00:02:32;;;;;;;8.07;2.10;;;;;;;;;;4974910;28;20471;-75
2021/10/27 00:04:58;;;;;;;12.25;2.40;;;;;;;;;;4973700;28;20088;-75
2021/10/27 00:07:24;;;;;;;8.70;2.38;;;;;;;;;;4968441;28;20026;-75
2021/10/27 00:09:50;;;;;;;6.72;2.30;;;;;;;;;;4970235;28;20026;-76
2021/10/27 00:12:15;;;;;;;15.00;2.65;;;;;;;;;;4973269;28;20023;-76
2021/10/27 00:14:41;;;;;;;10.35;2.47;;;;;;;;;;4974226;28;20035;-76
2021/10/27 00:17:07;;;;;;;11.65;3.03;;;;;;;;;;4975044;28;20031;-76
2021/10/27 00:19:33;;;;;;;10.90;2.90;;;;;;;;;;4973953;28;20501;-76
2021/10/27 00:21:58;;;;;;;9.70;3.05;;;;;;;;;;4971946;28;20483;-76
2021/10/27 00:24:24;;;;;;;13.35;2.90;;;;;;;;;;4973925;28;20033;-75
2021/10/27 00:26:50;;;;;;;12.20;2.70;;;;;;;;;;4975332;28;20019;-76
2021/10/27 00:29:15;;;;;;;7.55;2.53;;;;;;;;;;4973907;28;20106;-75
2021/10/27 00:31:41;;;;;;;12.52;3.20;;;;;;;;;;4970444;28;20372;-75
2021/10/27 00:34:06;;;;;;;13.00;2.47;;;;;;;;;;4967813;28;20022;-76
2021/10/27 00:36:32;;;;;;;13.30;3.00;;;;;;;;;;4973441;28;20032;-75
2021/10/27 00:38:57;;;;;;;9.93;3.10;;;;;;;;;;4970942;28;20026;-76
2021/10/27 00:41:23;;;;;;;11.38;3.35;;;;;;;;;;4973388;28;20023;-75
2021/10/27 00:43:48;;;;;;;13.00;2.55;;;;;;;;;;4971427;28;20395;-75
2021/10/27 00:46:22;;;;;;;13.02;3.20;;;;;;;;;;4974332;28;20090;-76
2021/10/27 00:48:48;;;;;;;11.57;2.80;;;;;;;;;;4973750;28;20030;-75
2021/10/27 00:51:15;;;;;;;13.32;2.80;;;;;;;;;;4973140;28;20080;-74
2021/10/27 00:53:41;;;;;;;15.50;3.42;;;;;;;;;;4972241;28;20030;-75
2021/10/27 00:56:07;;;;;;;14.38;3.10;;;;;;;;;;4973623;28;20495;-75
2021/10/27 00:58:35;;;;;;;17.10;3.40;;;;;;;;;;4972667;28;20368;-75
2021/10/27 01:01:00;;;;;;;15.77;4.20;;;;;;;;;;4973315;28;20038;-75
2021/10/27 01:03:27;;;;;;;15.35;3.33;;;;;;;;;;4971895;28;20022;-75
2021/10/27 01:05:52;;;;;;;16.98;3.30;;;;;;;;;;4972918;28;20031;-75
2021/10/27 01:08:18;;;;;;;17.63;4.00;;;;;;;;;;4971103;28;20562;-75
2021/10/27 01:10:43;;;;;;;8.73;2.80;;;;;;;;;;4973864;28;20027;-75
2021/10/27 01:13:09;;;;;;;12.05;3.25;;;;;;;;;;4972447;28;20407;-74
2021/10/27 01:15:39;;;;;;;14.07;3.35;;;;;;;;;;4968177;28;20029;-75
2021/10/27 01:18:06;;;;;;;10.73;3.38;;;;;;;;;;4972913;28;20033;-75
2021/10/27 01:20:31;;;;;;;10.73;3.05;;;;;;;;;;4972690;28;20077;-75
2021/10/27 01:22:57;;;;;;;8.23;2.75;;;;;;;;;;4972879;28;20074;-75
2021/10/27 01:25:22;;;;;;;9.45;2.90;;;;;;;;;;4967713;28;20445;-74
2021/10/27 01:27:48;;;;;;;11.68;2.97;;;;;;;;;;4972826;28;20033;-76
2021/10/27 01:30:17;;;;;;;12.20;3.40;;;;;;;;;;4973382;28;20364;-75
2021/10/27 01:32:44;;;;;;;11.60;2.90;;;;;;;;;;4967153;28;20398;-75
2021/10/27 01:35:10;;;;;;;12.27;3.28;;;;;;;;;;4972598;28;20074;-76
2021/10/27 01:37:37;;;;;;;12.23;3.78;;;;;;;;;;4973629;28;20081;-75
2021/10/27 01:40:04;;;;;;;11.35;3.20;;;;;;;;;;4972420;28;20037;-75
2021/10/27 01:42:30;;;;;;;11.20;2.92;;;;;;;;;;4972447;28;20081;-75
2021/10/27 01:44:56;;;;;;;7.13;3.00;;;;;;;;;;4971868;28;20479;-74
2021/10/27 01:47:21;;;;;;;16.00;3.30;;;;;;;;;;4953999;28;20043;-74
2021/10/27 01:49:47;;;;;;;8.25;2.97;;;;;;;;;;4966493;28;20022;-76
2021/10/27 01:52:13;;;;;;;11.93;3.05;;;;;;;;;;4971703;28;20475;-75
2021/10/27 01:54:40;;;;;;;13.93;3.30;;;;;;;;;;4968472;28;20038;-74
2021/10/27 01:57:07;;;;;;;11.68;2.75;;;;;;;;;;4972911;28;20463;-75
2021/10/27 01:59:33;;;;;;;15.02;3.30;;;;;;;;;;4971829;28;20494;-76
2021/10/27 02:01:59;;;;;;;8.32;2.60;;;;;;;;;;4972843;28;20360;-75
2021/10/27 02:04:24;;;;;;;13.70;3.40;;;;;;;;;;4972505;28;20038;-74
2021/10/27 02:06:50;;;;;;;16.27;3.33;;;;;;;;;;4973153;28;20050;-75
2021/10/27 02:09:16;;;;;;;10.80;3.00;;;;;;;;;;4971752;28;20050;-76
2021/10/27 02:11:42;;;;;;;10.90;2.72;;;;;;;;;;4973271;28;20053;-75
2021/10/27 02:14:07;;;;;;;9.05;3.15;;;;;;;;;;4970659;28;20034;-74
2021/10/27 02:16:32;;;;;;;14.82;3.35;;;;;;;;;;4971995;28;20065;-75
2021/10/27 02:18:58;;;;;;;15.02;3.95;;;;;;;;;;4971111;28;20046;-76
2021/10/27 02:21:23;;;;;;;8.98;3.08;;;;;;;;;;4972714;28;20033;-74
2021/10/27 02:23:49;;;;;;;10.98;3.45;;;;;;;;;;4972241;28;20033;-76
2021/10/27 02:26:15;;;;;;;11.77;3.80;;;;;;;;;;4972296;28;20026;-75
2021/10/27 02:28:41;;;;;;;6.38;2.85;;;;;;;;;;4968736;28;20041;-75
2021/10/27 02:31:07;;;;;;;12.45;3.55;;;;;;;;;;4971803;28;20037;-75
2021/10/27 02:33:32;;;;;;;12.82;3.00;;;;;;;;;;4971307;28;20565;-75
2021/10/27 02:35:58;;;;;;;9.43;2.78;;;;;;;;;;4972240;28;20467;-76
2021/10/27 02:38:24;;;;;;;15.02;2.80;;;;;;;;;;4967700;28;20046;-75
2021/10/27 02:40:49;;;;;;;9.50;3.25;;;;;;;;;;4968066;28;20045;-75
2021/10/27 02:43:16;;;;;;;10.82;3.20;;;;;;;;;;4971126;28;20415;-76
2021/10/27 02:45:46;;;;;;;9.18;3.22;;;;;;;;;;4963367;28;20472;-76
2021/10/27 02:48:15;;;;;;;7.85;2.85;;;;;;;;;;4968801;28;20081;-76
2021/10/27 02:50:42;;;;;;;10.48;3.00;;;;;;;;;;4952710;28;20032;-76
2021/10/27 02:53:08;;;;;;;10.93;3.10;;;;;;;;;;4966971;28;20027;-76
2021/10/27 02:55:34;;;;;;;11.80;3.47;;;;;;;;;;4970500;28;20031;-76
2021/10/27 02:58:00;;;;;;;10.57;2.97;;;;;;;;;;4970742;28;20376;-76
2021/10/27 03:00:27;;;;;;;12.20;3.00;;;;;;;;;;4954221;28;20023;-76
2021/10/27 03:02:53;;;;;;;9.80;2.97;;;;;;;;;;4972140;28;20027;-76
2021/10/27 03:05:20;;;;;;;6.50;3.33;;;;;;;;;;4971867;28;20078;-75
2021/10/27 03:07:46;;;;;;;14.15;3.65;;;;;;;;;;4972088;28;20356;-76
2021/10/27 03:10:12;;;;;;;11.15;2.90;;;;;;;;;;4956128;28;20362;-76
2021/10/27 03:12:37;;;;;;;14.93;3.83;;;;;;;;;;4972419;28;20548;-76
2021/10/27 03:15:03;;;;;;;11.68;3.20;;;;;;;;;;4966777;28;20081;-76
2021/10/27 03:17:29;;;;;;;10.45;2.80;;;;;;;;;;4970528;28;20038;-77
2021/10/27 03:19:54;;;;;;;12.93;3.45;;;;;;;;;;4972427;28;20033;-77
2021/10/27 03:22:20;;;;;;;9.15;2.85;;;;;;;;;;4964465;28;20443;-77
2021/10/27 03:24:46;;;;;;;5.45;2.55;;;;;;;;;;4967328;28;20041;-77
2021/10/27 03:27:11;;;;;;;9.82;3.20;;;;;;;;;;4970905;28;20483;-77
2021/10/27 03:29:37;;;;;;;12.45;2.80;;;;;;;;;;4971156;28;20035;-77
2021/10/27 03:32:03;;;;;;;82.97;51.45;;;;;;;;;;4973291;28;20077;-77
2021/10/27 03:34:28;;;;;;;124.78;61.80;;;;;;;;;;4973821;28;20470;-77
2021/10/27 03:36:54;;;;;;;15.38;10.43;;;;;;;;;;4975580;28;20027;-77
2021/10/27 03:39:20;;;;;;;32.33;28.85;;;;;;;;;;4956174;28;20023;-77
2021/10/27 03:41:46;;;;;;;26.52;17.23;;;;;;;;;;4956014;28;20479;-77
2021/10/27 03:44:12;;;;;;;10.52;4.68;;;;;;;;;;4965276;28;20530;-77
2021/10/27 03:46:38;;;;;;;18.10;10.80;;;;;;;;;;4974619;28;20042;-76
2021/10/27 03:49:03;;;;;;;16.52;12.30;;;;;;;;;;4974917;28;20209;-77
2021/10/27 03:51:30;;;;;;;9.15;4.55;;;;;;;;;;4971913;28;20070;-77
2021/10/27 03:53:55;;;;;;;24.80;14.60;;;;;;;;;;4963047;28;20026;-77
2021/10/27 03:56:20;;;;;;;13.18;7.45;;;;;;;;;;4974224;28;20023;-77
2021/10/27 03:58:46;;;;;;;18.00;10.60;;;;;;;;;;4974607;28;20118;-76
2021/10/27 04:01:12;;;;;;;19.52;13.73;;;;;;;;;;4967658;28;20041;-76
2021/10/27 04:03:38;;;;;;;32.95;19.13;;;;;;;;;;4973557;28;20035;-77
2021/10/27 04:06:04;;;;;;;66.80;42.78;;;;;;;;;;4973842;28;20031;-77
2021/10/27 04:08:29;;;;;;;35.42;20.00;;;;;;;;;;4973363;28;20048;-77
2021/10/27 04:10:55;;;;;;;22.55;10.70;;;;;;;;;;4968858;28;20540;-77
2021/10/27 04:13:21;;;;;;;16.92;5.22;;;;;;;;;;4971912;28;20022;-77
2021/10/27 04:15:46;;;;;;;48.03;31.50;;;;;;;;;;4969416;28;20027;-77
2021/10/27 04:18:12;;;;;;;14.98;5.78;;;;;;;;;;4971907;28;20093;-77
2021/10/27 04:20:38;;;;;;;21.65;12.65;;;;;;;;;;4971190;28;20505;-77
2021/10/27 04:23:05;;;;;;;11.70;6.03;;;;;;;;;;4971795;28;20144;-77
2021/10/27 04:25:31;;;;;;;16.52;5.78;;;;;;;;;;4969131;28;20086;-76
2021/10/27 04:27:57;;;;;;;16.52;7.80;;;;;;;;;;4972233;28;20038;-76
2021/10/27 04:30:23;;;;;;;14.95;8.43;;;;;;;;;;4971890;28;20070;-76
2021/10/27 04:32:48;;;;;;;22.20;12.65;;;;;;;;;;4972247;28;20588;-77
2021/10/27 04:35:15;;;;;;;11.85;7.20;;;;;;;;;;4974439;28;20035;-77
2021/10/27 04:37:42;;;;;;;17.10;8.23;;;;;;;;;;4972773;28;20066;-77
2021/10/27 04:40:10;;;;;;;16.77;6.90;;;;;;;;;;4973917;28;20050;-77
2021/10/27 04:42:37;;;;;;;9.95;5.30;;;;;;;;;;4973729;28;20030;-77
2021/10/27 04:45:04;;;;;;;12.45;5.18;;;;;;;;;;4973431;28;20446;-77
2021/10/27 04:47:29;;;;;;;14.70;4.38;;;;;;;;;;4972841;28;20022;-77
2021/10/27 04:49:54;;;;;;;12.95;4.85;;;;;;;;;;4974215;28;20077;-77
2021/10/27 04:52:20;;;;;;;11.60;5.65;;;;;;;;;;4974252;28;20026;-77
2021/10/27 04:54:45;;;;;;;13.07;4.78;;;;;;;;;;4974152;28;20031;-77
2021/10/27 04:57:10;;;;;;;13.77;5.57;;;;;;;;;;4973081;28;20526;-77
2021/10/27 04:59:42;;;;;;;10.10;5.72;;;;;;;;;;4965249;28;20027;-77
2021/10/27 05:02:09;;;;;;;10.95;4.97;;;;;;;;;;4974472;28;20490;-77
2021/10/27 05:04:35;;;;;;;11.95;7.07;;;;;;;;;;4973399;28;20089;-77
2021/10/27 05:07:01;;;;;;;14.65;5.50;;;;;;;;;;4973404;28;20026;-77
2021/10/27 05:09:27;;;;;;;14.07;6.20;;;;;;;;;;4973301;28;20026;-79
2021/10/27 05:11:53;;;;;;;19.35;14.32;;;;;;;;;;4974776;28;20466;-80
2021/10/27 05:14:18;;;;;;;11.35;4.70;;;;;;;;;;4966215;28;20027;-79
2021/10/27 05:16:44;;;;;;;10.25;5.47;;;;;;;;;;4964083;28;20037;-79
2021/10/27 05:19:09;;;;;;;8.85;4.45;;;;;;;;;;4971983;28;20464;-80
2021/10/27 05:21:34;;;;;;;15.43;8.07;;;;;;;;;;4973427;28;20030;-79
2021/10/27 05:24:00;;;;;;;11.88;5.57;;;;;;;;;;4971794;28;20081;-80
2021/10/27 05:26:25;;;;;;;16.20;7.55;;;;;;;;;;4966742;28;20030;-80
2021/10/27 05:28:51;;;;;;;13.50;5.28;;;;;;;;;;4972851;28;20550;-80
2021/10/27 05:31:17;;;;;;;13.00;5.72;;;;;;;;;;4972635;28;20026;-80
2021/10/27 05:33:42;;;;;;;43.13;22.52;;;;;;;;;;4972460;28;20042;-80
2021/10/27 05:36:09;;;;;;;26.77;14.75;;;;;;;;;;4973470;28;20077;-78
2021/10/27 05:38:35;;;;;;;13.35;7.18;;;;;;;;;;4972657;28;20031;-78
2021/10/27 05:41:00;;;;;;;15.85;6.95;;;;;;;;;;4972878;28;20042;-78
2021/10/27 05:43:26;;;;;;;20.75;13.00;;;;;;;;;;4973395;28;20041;-79
2021/10/27 05:45:55;;;;;;;18.00;8.02;;;;;;;;;;4973238;28;20113;-79
2021/10/27 05:48:22;;;;;;;14.95;6.95;;;;;;;;;;4973336;28;20019;-80
2021/10/27 05:51:09;;;;;;;13.00;7.13;;;;;;;;;;4972675;28;20479;-79
2021/10/27 05:56:19;;;;;;;14.40;6.43;;;;;;;;;;4972853;28;20033;-80
2021/10/27 05:58:46;;;;;;;17.30;8.45;;;;;;;;;;4972613;28;20424;-81
2021/10/27 06:01:12;;;;;;;15.27;7.60;;;;;;;;;;4970989;28;20034;-80
2021/10/27 06:03:37;;;;;;;14.07;7.35;;;;;;;;;;4972635;28;20394;-81
2021/10/27 06:06:03;;;;;;;16.88;7.55;;;;;;;;;;4973156;28;20065;-80
2021/10/27 06:08:29;;;;;;;18.50;8.52;;;;;;;;;;4972049;28;20038;-80
2021/10/27 06:11:08;;;;;;;14.20;7.70;;;;;;;;;;4972720;28;20030;-80
2021/10/27 06:13:36;;;;;;;19.98;8.38;;;;;;;;;;4970418;28;20122;-80
2021/10/27 06:16:02;;;;;;;14.35;7.90;;;;;;;;;;4972693;28;20035;-80
2021/10/27 06:18:28;;;;;;;19.60;7.80;;;;;;;;;;4972713;28;20019;-81
2021/10/27 06:20:54;;;;;;;16.85;7.57;;;;;;;;;;4972611;28;20030;-80
2021/10/27 06:23:22;;;;;;;18.65;7.43;;;;;;;;;;4972438;28;20046;-81
2021/10/27 06:25:49;;;;;;;22.17;7.78;;;;;;;;;;4973064;28;20398;-80
2021/10/27 06:28:20;;;;;;;21.65;7.47;;;;;;;;;;4968197;28;20033;-79
2021/10/27 06:35:51;;;;;;;18.02;7.53;;;;;;;;;;4972619;28;20035;-80
2021/10/27 06:38:27;;;;;;;13.95;7.00;;;;;;;;;;4971615;28;20074;-80
2021/10/27 06:48:52;;;;;;;16.13;8.65;;;;;;;;;;4971827;28;20041;-81
2021/10/27 06:51:18;;;;;;;19.88;9.30;;;;;;;;;;4972088;28;20031;-81
2021/10/27 06:53:44;;;;;;;17.27;7.82;;;;;;;;;;4969125;28;20050;-77
2021/10/27 06:56:14;;;;;;;21.65;9.50;;;;;;;;;;4965468;28;20489;-77
2021/10/27 06:59:00;;;;;;;20.35;9.25;;;;;;;;;;4962472;28;20483;-79
2021/10/27 07:01:40;;;;;;;23.23;10.10;;;;;;;;;;4966063;28;20033;-78
2021/10/27 07:04:33;;;;;;;21.23;9.20;;;;;;;;;;4968415;28;20027;-79
2021/10/27 07:17:27;;;;;;;20.30;8.93;;;;;;;;;;4970844;28;20266;-73
2021/10/27 07:19:54;;;;;;;16.98;8.25;;;;;;;;;;4966915;28;20114;-77
2021/10/27 07:22:19;;;;;;;19.02;8.88;;;;;;;;;;4974554;28;20047;-76
2021/10/27 07:24:45;;;;;;;21.25;8.25;;;;;;;;;;4961775;28;20082;-78
2021/10/27 07:27:11;;;;;;;18.33;9.32;;;;;;;;;;4969148;28;20384;-80
2021/10/27 07:29:41;;;;;;;17.88;8.60;;;;;;;;;;4976294;28;20026;-80
2021/10/27 07:32:09;;;;;;;18.70;9.18;;;;;;;;;;4975768;28;20415;-80
2021/10/27 07:34:37;;;;;;;19.75;9.52;;;;;;;;;;4975528;28;20019;-80
2021/10/27 07:42:40;;;;;;;19.73;9.10;;;;;;;;;;4981026;28;20100;-77
2021/10/27 07:45:06;;;;;;;20.52;8.95;;;;;;;;;;4971323;28;20057;-77
2021/10/27 07:47:32;;;;;;;25.20;9.50;;;;;;;;;;4969651;28;20062;-76
2021/10/27 07:49:58;;;;;;;18.95;9.68;;;;;;;;;;4973292;28;20026;-76
2021/10/27 07:52:24;;;;;;;17.10;9.60;;;;;;;;;;4975930;28;20030;-76
2021/10/27 07:54:50;;;;;;;18.95;10.57;;;;;;;;;;4972113;28;20702;-79
2021/10/27 07:57:15;;;;;;;20.33;10.75;;;;;;;;;;4991046;28;20043;-78
2021/10/27 07:59:41;;;;;;;24.98;11.75;;;;;;;;;;4963537;28;20027;-78
2021/10/27 08:02:06;;;;;;;26.27;11.82;;;;;;;;;;4961163;28;20089;-80
2021/10/27 08:04:34;;;;;;;26.50;11.57;;;;;;;;;;4975770;28;20054;-76
2021/10/27 08:07:00;;;;;;;31.25;13.95;;;;;;;;;;4974232;28;20125;-77
2021/10/27 08:09:26;;;;;;;35.40;13.38;;;;;;;;;;4976151;28;20029;-76
2021/10/27 08:11:52;;;;;;;27.05;13.18;;;;;;;;;;4973446;28;20026;-79
2021/10/27 08:14:17;;;;;;;31.85;14.07;;;;;;;;;;4975148;28;20038;-76
2021/10/27 08:16:45;;;;;;;31.48;14.50;;;;;;;;;;4973844;28;20037;-76
2021/10/27 08:19:10;;;;;;;33.85;13.93;;;;;;;;;;4974323;28;20033;-76
2021/10/27 08:21:36;;;;;;;29.20;13.65;;;;;;;;;;4974769;28;20019;-76
2021/10/27 08:24:02;;;;;;;32.58;13.32;;;;;;;;;;4974600;28;20081;-75
2021/10/27 08:26:27;;;;;;;23.08;10.30;;;;;;;;;;4974527;28;20035;-75
2021/10/27 08:28:57;;;;;;;23.15;11.65;;;;;;;;;;4974125;28;20050;-76
2021/10/27 08:36:22;;;;;;;16.25;7.85;;;;;;;;;;4957948;28;20038;-76
2021/10/27 08:38:49;;;;;;;18.85;9.60;;;;;;;;;;4970670;28;20117;-79
2021/10/27 08:41:15;;;;;;;16.10;8.63;;;;;;;;;;4967173;28;20027;-79
2021/10/27 08:43:41;;;;;;;13.68;6.90;;;;;;;;;;4955791;28;20031;-77
2021/10/27 08:46:08;;;;;;;18.73;8.98;;;;;;;;;;4956993;28;20031;-80
2021/10/27 08:48:35;;;;;;;15.85;9.13;;;;;;;;;;4956246;28;20131;-79
2021/10/27 08:51:04;;;;;;;13.45;6.80;;;;;;;;;;4957160;28;20070;-78
2021/10/27 08:53:30;;;;;;;12.27;7.05;;;;;;;;;;4956075;28;20074;-77
2021/10/27 08:56:01;;;;;;;12.00;5.47;;;;;;;;;;4962520;28;20031;-79
2021/10/27 08:58:31;;;;;;;12.80;6.68;;;;;;;;;;4975194;28;20081;-78
2021/10/27 09:06:36;;;;;;;15.23;6.93;;;;;;;;;;4967644;28;20027;-76
2021/10/27 09:17:15;;;;;;;10.18;5.05;;;;;;;;;;4965356;28;20383;-77
2021/10/27 09:34:22;;;;;;;12.85;6.28;;;;;;;;;;4973301;28;20113;-79
2021/10/27 09:36:59;;;;;;;11.38;5.32;;;;;;;;;;4974276;28;20054;-79
2021/10/27 10:05:06;;;;;;;8.43;4.28;;;;;;;;;;4972204;28;20375;-78
2021/10/27 10:07:38;;;;;;;9.82;4.05;;;;;;;;;;4968432;28;20030;-79
2021/10/27 10:10:06;;;;;;;10.77;4.68;;;;;;;;;;4954162;28;20376;-76
2021/10/27 10:12:42;;;;;;;10.13;4.20;;;;;;;;;;4956728;28;20082;-74
2021/10/27 10:15:09;;;;;;;8.82;3.90;;;;;;;;;;4971379;28;20037;-79
2021/10/27 10:17:39;;;;;;;6.22;2.75;;;;;;;;;;4972007;28;20391;-77
2021/10/27 10:20:06;;;;;;;7.20;3.83;;;;;;;;;;4964813;28;20098;-76
2021/10/27 10:22:36;;;;;;;11.52;4.95;;;;;;;;;;4972949;28;20039;-78
2021/10/27 10:25:19;;;;;;;11.95;5.00;;;;;;;;;;4954393;28;20103;-79
2021/10/27 10:27:57;;;;;;;11.73;4.47;;;;;;;;;;4954675;28;20062;-78
2021/10/27 10:30:31;;;;;;;11.75;4.45;;;;;;;;;;4972449;28;20027;-75
2021/10/27 10:33:13;;;;;;;12.48;4.25;;;;;;;;;;4958398;28;20030;-79
2021/10/27 10:35:47;;;;;;;9.60;4.90;;;;;;;;;;4966790;28;20042;-80
2021/10/27 10:38:38;;;;;;;14.20;5.75;;;;;;;;;;4962277;28;20066;-81
2021/10/27 11:39:50;;;;;;;50.92;16.38;;;;;;;;;;4961419;28;20034;-73
2021/10/27 11:42:40;;;;;;;47.83;17.40;;;;;;;;;;4954030;28;20058;-80
2021/10/27 11:48:01;;;;;;;48.08;16.52;;;;;;;;;;4952235;28;20031;-79
2021/10/27 11:50:39;;;;;;;38.05;15.13;;;;;;;;;;4969079;28;20034;-79
2021/10/27 11:53:06;;;;;;;47.88;17.38;;;;;;;;;;4958895;28;20035;-79
2021/10/27 11:55:34;;;;;;;53.60;17.50;;;;;;;;;;4961138;28;20026;-79
2021/10/27 11:58:01;;;;;;;46.13;17.05;;;;;;;;;;4970594;28;20030;-79
2021/10/27 12:00:36;;;;;;;41.83;14.20;;;;;;;;;;4957678;28;20490;-79
2021/10/27 12:03:27;;;;;;;48.50;16.50;;;;;;;;;;4958079;28;20475;-81
2021/10/27 12:06:02;;;;;;;44.67;15.77;;;;;;;;;;4972263;28;20096;-79
2021/10/27 12:16:28;;;;;;;35.97;14.43;;;;;;;;;;4963952;28;20106;-77
2021/10/27 12:19:00;;;;;;;42.67;15.30;;;;;;;;;;4975131;28;20031;-80
2021/10/27 12:21:28;;;;;;;30.02;13.05;;;;;;;;;;4966490;28;20034;-79
2021/10/27 12:23:55;;;;;;;39.30;15.80;;;;;;;;;;4963765;28;20039;-79
2021/10/27 12:26:23;;;;;;;26.02;11.82;;;;;;;;;;4960502;28;20483;-79
2021/10/27 12:29:09;;;;;;;29.05;12.95;;;;;;;;;;4958326;28;20042;-79
2021/10/27 12:31:34;;;;;;;37.42;12.40;;;;;;;;;;4977632;28;20043;-82
2021/10/27 12:34:00;;;;;;;34.08;12.65;;;;;;;;;;4976513;28;20027;-81
2021/10/27 12:39:08;;;;;;;28.50;15.15;;;;;;;;;;4977129;28;20114;-81
2021/10/27 12:41:35;;;;;;;32.53;12.38;;;;;;;;;;4975576;28;20737;-79
2021/10/27 12:44:19;;;;;;;32.30;11.43;;;;;;;;;;4976062;28;20090;-78
2021/10/27 12:46:45;;;;;;;26.08;10.32;;;;;;;;;;4975205;28;20559;-76
2021/10/27 12:49:21;;;;;;;31.02;12.13;;;;;;;;;;4974998;28;20019;-79
2021/10/27 12:51:48;;;;;;;28.90;11.60;;;;;;;;;;4959426;28;20566;-78
2021/10/27 12:54:14;;;;;;;26.75;12.50;;;;;;;;;;4975719;28;20054;-78
2021/10/27 12:56:40;;;;;;;29.17;9.85;;;;;;;;;;4973635;28;20029;-79
2021/10/27 12:59:08;;;;;;;24.98;10.32;;;;;;;;;;4965576;28;20016;-76
2021/10/27 13:30:19;;;;;;;17.05;7.10;;;;;;;;;;4973100;28;19921;-81
2021/10/27 13:32:54;;;;;;;17.58;8.43;;;;;;;;;;4969126;28;20043;-78
2021/10/27 13:35:21;;;;;;;18.30;7.45;;;;;;;;;;4970672;28;20023;-80
2021/10/27 13:37:47;;;;;;;26.15;8.45;;;;;;;;;;4958206;28;20038;-77
2021/10/27 13:40:13;;;;;;;25.77;10.05;;;;;;;;;;4968835;28;20034;-77
2021/10/27 13:43:01;;;;;;;19.38;8.32;;;;;;;;;;4972769;28;20039;-78
2021/10/27 14:06:45;;;;;;;10.75;4.45;;;;;;;;;;4961066;28;19972;-77
2021/10/27 14:09:25;;;;;;;10.63;5.80;;;;;;;;;;4969426;28;20112;-79
2021/10/27 14:14:53;;;;;;;10.75;4.53;;;;;;;;;;4973159;28;20034;-75
2021/10/27 14:17:46;;;;;;;14.88;5.68;;;;;;;;;;4968280;28;20076;-76
2021/10/27 15:19:40;;;;;;;13.50;4.68;;;;;;;;;;4980383;28;19938;-82
2021/10/27 15:22:57;;;;;;;9.20;4.10;;;;;;;;;;4970742;28;20092;-78
2021/10/27 15:28:07;;;;;;;15.52;4.90;;;;;;;;;;4977102;28;20058;-79
2021/10/27 15:33:40;;;;;;;14.43;4.88;;;;;;;;;;4972275;28;20096;-79
2021/10/27 15:41:44;;;;;;;16.70;4.43;;;;;;;;;;4975097;28;20037;-74
2021/10/27 15:52:23;;;;;;;19.38;7.20;;;;;;;;;;4975422;28;20098;-81
2021/10/27 15:54:49;;;;;;;17.52;5.35;;;;;;;;;;4976163;28;20058;-80
2021/10/27 15:57:16;;;;;;;22.65;6.18;;;;;;;;;;4975571;28;20499;-80
2021/10/27 15:59:43;;;;;;;10.57;4.40;;;;;;;;;;4966406;28;20119;-76
2021/10/27 16:02:10;;;;;;;10.45;3.83;;;;;;;;;;4975681;28;20018;-80
2021/10/27 16:04:38;;;;;;;11.05;4.32;;;;;;;;;;4974696;28;20031;-78
2021/10/27 16:07:06;;;;;;;15.40;5.90;;;;;;;;;;4975716;28;20036;-75
2021/10/27 16:09:38;;;;;;;13.02;4.40;;;;;;;;;;4976102;28;20034;-75
2021/10/27 16:12:04;;;;;;;8.63;3.45;;;;;;;;;;4974504;28;20038;-75
2021/10/27 16:14:31;;;;;;;39.30;17.35;;;;;;;;;;4975880;28;20030;-77
2021/10/27 16:16:56;;;;;;;11.57;3.92;;;;;;;;;;4976435;28;20030;-75
2021/10/27 16:19:22;;;;;;;10.90;3.80;;;;;;;;;;4971357;28;20035;-79
2021/10/27 16:21:56;;;;;;;11.48;4.78;;;;;;;;;;4975659;28;20026;-79
2021/10/27 16:24:22;;;;;;;16.30;5.20;;;;;;;;;;4975102;28;20133;-78
2021/10/27 16:26:48;;;;;;;23.20;10.65;;;;;;;;;;4976257;28;20122;-81
2021/10/27 16:29:14;;;;;;;23.65;8.68;;;;;;;;;;4975699;28;20031;-80
2021/10/27 16:31:40;;;;;;;16.88;5.65;;;;;;;;;;4976063;28;20036;-79
2021/10/27 16:34:08;;;;;;;16.00;5.72;;;;;;;;;;4974598;28;20034;-78
2021/10/27 16:36:34;;;;;;;31.45;12.32;;;;;;;;;;4974068;28;20118;-79
2021/10/27 16:39:00;;;;;;;14.23;3.92;;;;;;;;;;4975383;28;20019;-79
2021/10/27 16:41:25;;;;;;;210.13;85.55;;;;;;;;;;4971898;28;20034;-77
2021/10/27 16:43:51;;;;;;;8.60;2.75;;;;;;;;;;4975779;28;20054;-80
2021/10/27 16:46:17;;;;;;;9.48;3.22;;;;;;;;;;4975348;28;20029;-80
2021/10/27 16:48:42;;;;;;;20.08;8.95;;;;;;;;;;4975363;28;20059;-79
2021/10/27 16:51:08;;;;;;;10.13;3.00;;;;;;;;;;4973565;28;20037;-78
2021/10/27 16:53:33;;;;;;;31.05;14.20;;;;;;;;;;4976075;28;20023;-79
2021/10/27 16:55:59;;;;;;;31.15;16.13;;;;;;;;;;4977241;28;20418;-79
2021/10/27 16:58:26;;;;;;;9.55;2.78;;;;;;;;;;4982613;28;20026;-80
2021/10/27 17:00:52;;;;;;;17.67;7.38;;;;;;;;;;4981436;28;20035;-79
2021/10/27 17:03:17;;;;;;;9.75;2.80;;;;;;;;;;4993594;28;20379;-80
2021/10/27 17:05:47;;;;;;;11.82;2.35;;;;;;;;;;4979963;28;20530;-79
2021/10/27 17:08:16;;;;;;;48.25;23.77;;;;;;;;;;4973455;28;20038;-80
2021/10/27 17:10:47;;;;;;;25.05;13.35;;;;;;;;;;4973617;28;20033;-79
2021/10/27 17:13:13;;;;;;;16.45;7.22;;;;;;;;;;4972999;28;20050;-77
2021/10/27 17:15:39;;;;;;;31.15;15.18;;;;;;;;;;4973291;28;20031;-77
2021/10/27 17:18:06;;;;;;;9.27;2.35;;;;;;;;;;4978699;28;20026;-80
2021/10/27 17:20:31;;;;;;;10.73;2.58;;;;;;;;;;4966461;28;20045;-77
2021/10/27 17:22:59;;;;;;;14.48;3.25;;;;;;;;;;4972115;28;20046;-79
2021/10/27 17:25:25;;;;;;;10.20;2.70;;;;;;;;;;4989482;28;20026;-77
2021/10/27 17:27:51;;;;;;;11.77;2.80;;;;;;;;;;4974778;28;20105;-77
2021/10/27 17:30:18;;;;;;;9.73;2.70;;;;;;;;;;4980360;28;20110;-77
2021/10/27 17:32:44;;;;;;;9.15;3.33;;;;;;;;;;4974579;28;20049;-80
2021/10/27 17:35:16;;;;;;;7.38;2.63;;;;;;;;;;4974458;28;20114;-77
2021/10/27 17:37:43;;;;;;;24.88;15.68;;;;;;;;;;4979079;28;20398;-74
2021/10/27 17:40:32;;;;;;;14.93;3.13;;;;;;;;;;4973522;28;20023;-78
2021/10/27 17:42:59;;;;;;;13.82;4.18;;;;;;;;;;4972403;28;20023;-80
2021/10/27 17:45:34;;;;;;;10.98;3.30;;;;;;;;;;4972365;28;20031;-80
2021/10/27 17:48:05;;;;;;;9.15;3.35;;;;;;;;;;4957080;28;20035;-79
2021/10/27 17:58:34;;;;;;;10.85;3.72;;;;;;;;;;4968655;28;20040;-77
2021/10/27 18:01:05;;;;;;;6.63;2.90;;;;;;;;;;4972180;28;20517;-77
2021/10/27 18:03:32;;;;;;;12.55;4.65;;;;;;;;;;4966170;28;20023;-78
2021/10/27 18:06:05;;;;;;;8.15;2.63;;;;;;;;;;4968774;28;20027;-78
2021/10/27 18:12:18;;;;;;;12.00;3.70;;;;;;;;;;5133442;22;1258372;-73
2021/10/27 18:16:57;;;;;;;11.27;3.00;;;;;;;;;;5098954;27;20473;-83
2021/10/27 18:21:57;;;;;;;13.60;3.20;;;;;;;;;;5057960;28;20398;-80
2021/10/27 18:24:57;;;;;;;8.77;3.17;;;;;;;;;;5056573;28;20021;-84
2021/10/27 18:40:54;;;;;;;15.40;6.30;;;;;;;;;;5066519;28;20044;-84
2021/10/27 18:43:29;;;;;;;13.15;4.18;;;;;;;;;;5073826;28;20028;-82
2021/10/27 18:45:58;;;;;;;11.93;4.22;;;;;;;;;;5057476;28;20120;-80
2021/10/27 18:48:23;;;;;;;12.40;4.07;;;;;;;;;;5049784;28;20457;-79
2021/10/27 19:11:21;;;;;;;8.52;3.75;;;;;;;;;;5057317;28;20496;-78
2021/10/27 19:16:16;;;;;;;11.18;3.70;;;;;;;;;;5055694;28;20049;-82
2021/10/27 19:18:43;;;;;;;13.13;3.97;;;;;;;;;;5059206;28;20029;-81
2021/10/27 19:21:09;;;;;;;10.05;3.08;;;;;;;;;;5069259;28;20087;-84
2021/10/27 19:23:36;;;;;;;10.20;3.70;;;;;;;;;;5075999;28;20063;-82
2021/10/27 19:26:22;;;;;;;14.23;2.53;;;;;;;;;;5052874;28;20093;-78
2021/10/27 19:29:35;;;;;;;9.55;3.17;;;;;;;;;;5043070;28;20068;-81
2021/10/27 19:31:56;;;;;;;11.88;2.97;;;;;;;;;;5036793;28;20037;-80
2021/10/27 20:07:23;;;;;;;7.18;2.65;;;;;;;;;;4965458;28;19926;-79
2021/10/27 20:10:03;;;;;;;5.43;2.50;;;;;;;;;;5031475;28;20033;-82
2021/10/27 20:53:05;;;;;;;8.05;2.13;;;;;;;;;;5044560;28;20061;-76
2021/10/27 20:55:32;;;;;;;6.32;1.90;;;;;;;;;;5043283;28;20040;-78
2021/10/27 21:14:00;;;;;;;6.07;1.92;;;;;;;;;;5041373;28;20048;-78
2021/10/27 21:16:26;;;;;;;6.82;2.67;;;;;;;;;;5036993;28;20046;-78
2021/10/27 21:18:52;;;;;;;5.35;1.90;;;;;;;;;;5040083;28;20044;-77
2021/10/27 21:21:18;;;;;;;5.05;1.80;;;;;;;;;;5037923;28;20715;-78
2021/10/27 21:23:43;;;;;;;5.95;1.55;;;;;;;;;;5040105;28;20033;-85
2021/10/27 21:26:09;;;;;;;3.97;1.52;;;;;;;;;;5035287;28;20129;-82
2021/10/27 21:42:34;;;;;;;6.28;1.60;;;;;;;;;;4969684;28;20043;-81
2021/10/27 21:44:59;;;;;;;6.50;1.70;;;;;;;;;;5044601;28;20060;-78
2021/10/27 21:47:27;;;;;;;9.60;2.00;;;;;;;;;;5042506;28;20025;-76
2021/10/27 21:49:52;;;;;;;6.20;1.50;;;;;;;;;;5038688;28;20030;-82
2021/10/27 21:52:18;;;;;;;7.72;1.60;;;;;;;;;;5049811;28;20032;-85
2021/10/27 21:54:44;;;;;;;7.82;2.00;;;;;;;;;;5034129;28;20045;-81
2021/10/27 21:57:10;;;;;;;5.40;1.50;;;;;;;;;;5059725;28;20047;-80
2021/10/27 21:59:35;;;;;;;8.98;2.15;;;;;;;;;;5057641;28;20033;-82
2021/10/27 22:02:02;;;;;;;5.95;1.75;;;;;;;;;;5041183;28;20045;-84
2021/10/27 22:04:28;;;;;;;6.57;1.58;;;;;;;;;;5047174;28;20125;-83